Time;durP1;ratioP1;P1;durP2;ratioP2;P2;SDS_P1;SDS_P2;PMS_P1;PMS_P2;Temp;Humidity;BMP_temperature;BMP_pressure;BME280_temperature;BME280_humidity;BME280_pressure;Samples;Min_cycle;Max_cycle;Signal;HPM_P1;HPM_P2
2023/04/19 00:02:02;;;;;;;24.80;23.40;;;;;;;;;;5041750;28;20468;-80
2023/04/19 00:04:32;;;;;;;25.40;23.77;;;;;;;;;;5043246;28;20426;-80
2023/04/19 00:06:59;;;;;;;24.80;23.37;;;;;;;;;;5042509;28;20473;-80
2023/04/19 00:09:26;;;;;;;25.10;23.60;;;;;;;;;;5041866;28;20457;-80
2023/04/19 00:11:53;;;;;;;24.37;22.90;;;;;;;;;;5043134;28;20974;-80
2023/04/19 00:14:20;;;;;;;25.30;23.80;;;;;;;;;;5043092;28;20483;-80
2023/04/19 00:16:47;;;;;;;24.87;23.37;;;;;;;;;;5042281;28;20426;-80
2023/04/19 00:19:14;;;;;;;24.67;23.13;;;;;;;;;;5043096;28;20529;-80
2023/04/19 00:21:42;;;;;;;25.60;24.00;;;;;;;;;;5043095;28;20469;-79
2023/04/19 00:24:09;;;;;;;24.73;23.33;;;;;;;;;;5044059;28;21048;-80
2023/04/19 00:26:36;;;;;;;25.30;23.70;;;;;;;;;;5043395;28;20451;-81
2023/04/19 00:29:03;;;;;;;24.60;22.77;;;;;;;;;;5043992;28;20490;-80
2023/04/19 00:31:30;;;;;;;24.23;22.70;;;;;;;;;;5044133;28;20476;-80
2023/04/19 00:33:57;;;;;;;25.40;23.70;;;;;;;;;;5043372;28;20526;-79
2023/04/19 00:36:25;;;;;;;24.67;23.10;;;;;;;;;;5043607;28;20443;-80
2023/04/19 00:38:53;;;;;;;23.43;22.07;;;;;;;;;;5043389;28;20805;-80
2023/04/19 00:41:20;;;;;;;22.23;21.00;;;;;;;;;;5043490;28;20431;-81
2023/04/19 00:43:47;;;;;;;25.03;23.53;;;;;;;;;;5043108;28;20450;-80
2023/04/19 00:46:15;;;;;;;24.60;23.10;;;;;;;;;;5043524;28;20447;-80
2023/04/19 00:48:42;;;;;;;24.30;22.80;;;;;;;;;;5042879;28;20449;-80
2023/04/19 00:51:09;;;;;;;24.87;23.27;;;;;;;;;;5043193;28;20459;-79
2023/04/19 00:53:36;;;;;;;25.50;23.90;;;;;;;;;;5044012;28;20450;-81
2023/04/19 00:56:05;;;;;;;24.20;22.70;;;;;;;;;;5042793;28;20445;-80
2023/04/19 00:58:33;;;;;;;24.70;23.20;;;;;;;;;;5043978;28;20446;-80
2023/04/19 01:01:01;;;;;;;23.53;22.13;;;;;;;;;;5042700;28;20757;-80
2023/04/19 01:03:28;;;;;;;24.90;23.30;;;;;;;;;;5042730;28;20803;-80
2023/04/19 01:05:56;;;;;;;25.20;23.60;;;;;;;;;;5042111;28;20460;-80
2023/04/19 01:08:23;;;;;;;24.43;23.00;;;;;;;;;;5043024;28;20446;-80
2023/04/19 01:10:50;;;;;;;26.17;24.20;;;;;;;;;;5042794;28;20443;-80
2023/04/19 01:13:18;;;;;;;25.67;23.97;;;;;;;;;;5043314;28;20462;-80
2023/04/19 01:15:45;;;;;;;24.30;22.70;;;;;;;;;;5041995;28;20453;-80
2023/04/19 01:18:12;;;;;;;23.57;22.07;;;;;;;;;;5042905;28;20475;-80
2023/04/19 01:20:39;;;;;;;23.70;22.17;;;;;;;;;;5045567;28;20524;-80
2023/04/19 01:23:10;;;;;;;25.23;23.63;;;;;;;;;;5045183;28;20453;-80
2023/04/19 01:25:37;;;;;;;25.63;23.93;;;;;;;;;;5044977;28;20497;-80
2023/04/19 01:28:04;;;;;;;25.43;23.93;;;;;;;;;;5045187;28;20513;-81
2023/04/19 01:30:31;;;;;;;25.87;24.20;;;;;;;;;;5045139;28;20438;-80
2023/04/19 01:32:58;;;;;;;25.60;23.67;;;;;;;;;;5044383;28;21046;-81
2023/04/19 01:35:25;;;;;;;25.63;23.90;;;;;;;;;;5045512;28;20418;-80
2023/04/19 01:37:55;;;;;;;25.27;23.67;;;;;;;;;;5045817;28;20426;-81
2023/04/19 01:40:24;;;;;;;24.40;22.80;;;;;;;;;;5045653;28;20542;-80
2023/04/19 01:42:51;;;;;;;24.67;23.07;;;;;;;;;;5044958;28;20468;-80
2023/04/19 01:45:18;;;;;;;24.93;23.33;;;;;;;;;;5045914;28;20434;-80
2023/04/19 01:47:45;;;;;;;25.30;23.70;;;;;;;;;;5044723;28;20430;-80
2023/04/19 01:50:12;;;;;;;24.57;22.93;;;;;;;;;;5043672;28;20458;-80
2023/04/19 01:52:39;;;;;;;25.97;24.33;;;;;;;;;;5044314;28;20414;-80
2023/04/19 01:55:06;;;;;;;25.77;23.97;;;;;;;;;;5043616;28;20829;-80
2023/04/19 01:57:34;;;;;;;24.40;23.00;;;;;;;;;;5043306;28;20468;-81
2023/04/19 02:00:02;;;;;;;24.63;23.03;;;;;;;;;;5043864;28;20517;-80
2023/04/19 02:02:29;;;;;;;25.37;23.27;;;;;;;;;;5042674;28;20442;-80
2023/04/19 02:04:56;;;;;;;25.67;24.07;;;;;;;;;;5042934;28;20468;-81
2023/04/19 02:07:23;;;;;;;24.30;22.80;;;;;;;;;;5043838;28;20436;-80
2023/04/19 02:09:50;;;;;;;25.70;24.10;;;;;;;;;;5042657;28;20496;-80
2023/04/19 02:12:17;;;;;;;26.03;24.13;;;;;;;;;;5043161;28;20470;-80
2023/04/19 02:14:45;;;;;;;25.77;23.97;;;;;;;;;;5043280;28;20483;-79
2023/04/19 02:17:12;;;;;;;25.80;24.13;;;;;;;;;;5041728;28;20446;-80
2023/04/19 02:19:39;;;;;;;24.57;23.03;;;;;;;;;;5042334;28;20498;-80
2023/04/19 02:22:06;;;;;;;25.20;23.27;;;;;;;;;;5042320;28;20486;-80
2023/04/19 02:24:33;;;;;;;26.33;24.50;;;;;;;;;;5041983;28;20444;-79
2023/04/19 02:27:01;;;;;;;25.03;23.43;;;;;;;;;;5042258;28;20422;-80
2023/04/19 02:29:28;;;;;;;23.90;22.50;;;;;;;;;;5041716;28;20510;-80
2023/04/19 02:31:56;;;;;;;24.70;23.23;;;;;;;;;;5042145;28;20788;-80
2023/04/19 02:34:23;;;;;;;24.73;23.33;;;;;;;;;;5041733;28;20461;-79
2023/04/19 02:36:50;;;;;;;25.20;23.60;;;;;;;;;;5040660;28;20930;-80
2023/04/19 02:39:17;;;;;;;25.43;23.83;;;;;;;;;;5041323;28;20776;-80
2023/04/19 02:41:44;;;;;;;24.67;23.17;;;;;;;;;;5040714;28;20442;-80
2023/04/19 02:44:11;;;;;;;25.90;24.30;;;;;;;;;;5041021;28;20415;-80
2023/04/19 02:46:38;;;;;;;25.73;24.13;;;;;;;;;;5040309;28;20430;-80
2023/04/19 02:49:08;;;;;;;25.77;24.17;;;;;;;;;;5041116;28;20541;-80
2023/04/19 02:51:35;;;;;;;25.13;23.53;;;;;;;;;;5040941;28;20765;-80
2023/04/19 02:54:02;;;;;;;25.67;24.07;;;;;;;;;;5039434;28;20532;-79
2023/04/19 02:56:29;;;;;;;25.80;24.20;;;;;;;;;;5040499;28;20565;-79
2023/04/19 02:58:56;;;;;;;26.00;24.40;;;;;;;;;;5041326;28;20434;-79
2023/04/19 03:01:23;;;;;;;25.00;23.27;;;;;;;;;;5041613;28;20800;-80
2023/04/19 03:03:50;;;;;;;26.57;24.93;;;;;;;;;;5041279;28;20906;-79
2023/04/19 03:06:19;;;;;;;24.97;23.33;;;;;;;;;;5040720;28;20453;-79
2023/04/19 03:08:46;;;;;;;24.97;23.37;;;;;;;;;;5041086;28;20471;-79
2023/04/19 03:11:13;;;;;;;26.20;24.40;;;;;;;;;;5040711;28;20426;-80
2023/04/19 03:13:40;;;;;;;25.10;23.60;;;;;;;;;;5041328;28;20471;-79
2023/04/19 03:16:08;;;;;;;25.10;23.20;;;;;;;;;;5040687;28;20843;-79
2023/04/19 03:18:35;;;;;;;23.97;22.47;;;;;;;;;;5040412;28;20480;-80
2023/04/19 03:21:02;;;;;;;24.93;23.43;;;;;;;;;;5039901;28;20446;-79
2023/04/19 03:23:30;;;;;;;24.27;22.80;;;;;;;;;;5040458;28;20422;-79
2023/04/19 03:25:57;;;;;;;24.57;23.07;;;;;;;;;;5040330;28;20434;-79
2023/04/19 03:28:24;;;;;;;26.20;24.40;;;;;;;;;;5040351;28;20534;-79
2023/04/19 03:30:51;;;;;;;24.90;23.30;;;;;;;;;;5042058;28;20483;-79
2023/04/19 03:33:18;;;;;;;25.10;23.53;;;;;;;;;;5041724;28;20414;-79
2023/04/19 03:35:45;;;;;;;24.47;22.97;;;;;;;;;;5040259;28;20506;-79
2023/04/19 03:38:12;;;;;;;25.77;24.07;;;;;;;;;;5040586;28;20448;-79
2023/04/19 03:40:40;;;;;;;24.27;22.77;;;;;;;;;;5041562;28;20468;-79
2023/04/19 03:43:08;;;;;;;24.70;23.00;;;;;;;;;;5040800;28;20525;-79
2023/04/19 03:45:35;;;;;;;23.93;22.00;;;;;;;;;;5041230;28;20442;-79
2023/04/19 03:48:02;;;;;;;22.50;21.13;;;;;;;;;;5040935;28;20451;-80
2023/04/19 03:50:29;;;;;;;23.63;22.13;;;;;;;;;;5042381;28;20465;-80
2023/04/19 03:52:56;;;;;;;23.33;21.83;;;;;;;;;;5040813;28;20443;-80
2023/04/19 03:55:23;;;;;;;23.97;22.37;;;;;;;;;;5041891;28;20516;-79
2023/04/19 03:57:51;;;;;;;23.90;22.50;;;;;;;;;;5042152;28;20981;-80
2023/04/19 04:00:18;;;;;;;23.10;21.80;;;;;;;;;;5040944;28;20517;-79
2023/04/19 04:02:45;;;;;;;24.73;23.07;;;;;;;;;;5041063;28;20494;-80
2023/04/19 04:05:12;;;;;;;22.60;21.20;;;;;;;;;;5038687;28;20436;-79
2023/04/19 04:07:40;;;;;;;24.00;22.60;;;;;;;;;;5036296;28;20474;-79
2023/04/19 04:10:08;;;;;;;24.30;22.90;;;;;;;;;;5036902;28;20521;-79
2023/04/19 04:12:35;;;;;;;24.93;23.50;;;;;;;;;;5036919;28;20454;-80
2023/04/19 04:15:03;;;;;;;22.50;21.20;;;;;;;;;;5039586;28;20445;-79
2023/04/19 04:17:30;;;;;;;23.67;22.27;;;;;;;;;;5040353;28;20426;-77
2023/04/19 04:19:57;;;;;;;24.20;22.80;;;;;;;;;;5035853;28;20524;-77
2023/04/19 04:22:24;;;;;;;23.83;22.42;;;;;;;;;;5036671;28;20825;-78
2023/04/19 04:24:52;;;;;;;23.57;22.00;;;;;;;;;;5037716;28;20212;-77
2023/04/19 04:27:20;;;;;;;24.77;23.20;;;;;;;;;;5039113;28;20462;-77
2023/04/19 04:29:48;;;;;;;23.87;22.47;;;;;;;;;;5039343;28;20490;-79
2023/04/19 04:32:16;;;;;;;23.27;21.80;;;;;;;;;;5038493;28;20455;-77
2023/04/19 04:34:44;;;;;;;23.33;22.00;;;;;;;;;;5036611;28;20479;-77
2023/04/19 04:37:12;;;;;;;23.20;21.70;;;;;;;;;;5036054;28;20426;-77
2023/04/19 04:39:39;;;;;;;23.53;21.93;;;;;;;;;;5036737;28;20453;-77
2023/04/19 04:42:07;;;;;;;22.07;20.77;;;;;;;;;;5036271;28;20430;-78
2023/04/19 04:44:34;;;;;;;21.77;20.57;;;;;;;;;;5036876;28;20448;-78
2023/04/19 04:47:01;;;;;;;23.00;21.67;;;;;;;;;;5035851;28;20422;-77
2023/04/19 04:49:30;;;;;;;23.00;21.60;;;;;;;;;;5036941;28;20446;-78
2023/04/19 04:51:57;;;;;;;23.00;21.50;;;;;;;;;;5036562;28;20436;-78
2023/04/19 04:54:24;;;;;;;22.20;21.00;;;;;;;;;;5036652;28;20577;-77
2023/04/19 04:56:51;;;;;;;23.48;21.77;;;;;;;;;;5034780;28;21003;-78
2023/04/19 04:59:18;;;;;;;22.87;21.67;;;;;;;;;;5036134;28;20233;-77
2023/04/19 05:01:45;;;;;;;22.80;21.40;;;;;;;;;;5035864;28;20447;-78
2023/04/19 05:04:12;;;;;;;22.20;20.63;;;;;;;;;;5036070;28;20472;-77
2023/04/19 05:06:41;;;;;;;23.07;21.57;;;;;;;;;;5034215;28;20521;-77
2023/04/19 05:09:08;;;;;;;23.73;22.07;;;;;;;;;;5035276;28;20567;-77
2023/04/19 05:11:35;;;;;;;22.40;21.20;;;;;;;;;;5035264;28;20464;-77
2023/04/19 05:14:02;;;;;;;21.63;20.42;;;;;;;;;;5035383;28;20454;-77
2023/04/19 05:16:29;;;;;;;21.93;20.50;;;;;;;;;;5034159;28;20254;-77
2023/04/19 05:18:56;;;;;;;21.53;20.33;;;;;;;;;;5035393;28;20525;-77
2023/04/19 05:21:23;;;;;;;21.03;19.80;;;;;;;;;;5034859;28;20513;-77
2023/04/19 05:23:53;;;;;;;21.53;20.33;;;;;;;;;;5035086;28;20447;-77
2023/04/19 05:26:20;;;;;;;21.33;20.13;;;;;;;;;;5033284;28;20462;-77
2023/04/19 05:28:47;;;;;;;21.58;20.38;;;;;;;;;;5034564;28;20510;-77
2023/04/19 05:31:14;;;;;;;21.70;20.50;;;;;;;;;;5034952;28;20258;-77
2023/04/19 05:33:41;;;;;;;22.40;21.10;;;;;;;;;;5034879;28;20454;-77
2023/04/19 05:36:08;;;;;;;21.50;20.27;;;;;;;;;;5034375;28;20479;-77
2023/04/19 05:38:35;;;;;;;21.33;20.13;;;;;;;;;;5034121;28;20488;-77
2023/04/19 05:41:04;;;;;;;21.17;19.97;;;;;;;;;;5034724;28;20459;-77
2023/04/19 05:43:31;;;;;;;20.77;19.57;;;;;;;;;;5034602;28;20455;-77
2023/04/19 05:45:58;;;;;;;21.42;20.13;;;;;;;;;;5033885;28;20444;-77
2023/04/19 05:48:25;;;;;;;21.27;20.05;;;;;;;;;;5034660;28;20767;-78
2023/04/19 05:50:53;;;;;;;21.80;20.60;;;;;;;;;;5034058;28;20213;-78
2023/04/19 05:53:20;;;;;;;22.43;21.23;;;;;;;;;;5034510;28;20452;-77
2023/04/19 05:55:49;;;;;;;22.13;20.73;;;;;;;;;;5033796;28;20475;-78
2023/04/19 05:58:18;;;;;;;21.90;20.70;;;;;;;;;;5034234;28;20433;-77
2023/04/19 06:00:45;;;;;;;22.13;20.85;;;;;;;;;;5034122;28;20475;-77
2023/04/19 06:03:12;;;;;;;22.83;21.53;;;;;;;;;;5033649;28;20228;-77
2023/04/19 06:05:40;;;;;;;22.70;21.30;;;;;;;;;;5033223;28;20903;-77
2023/04/19 06:08:08;;;;;;;22.53;21.07;;;;;;;;;;5034036;28;20451;-77
2023/04/19 06:10:35;;;;;;;22.97;21.47;;;;;;;;;;5034265;28;20525;-78
2023/04/19 06:13:02;;;;;;;23.47;22.07;;;;;;;;;;5036224;28;20430;-78
2023/04/19 06:15:31;;;;;;;21.73;20.43;;;;;;;;;;5033866;28;21017;-78
2023/04/19 06:17:58;;;;;;;22.20;20.90;;;;;;;;;;5033890;28;20425;-77
2023/04/19 06:20:25;;;;;;;23.10;21.53;;;;;;;;;;5033552;28;20537;-77
2023/04/19 06:22:52;;;;;;;23.10;21.50;;;;;;;;;;5033564;28;20434;-77
2023/04/19 06:25:19;;;;;;;23.07;21.57;;;;;;;;;;5033193;28;20446;-77
2023/04/19 06:27:46;;;;;;;22.20;20.90;;;;;;;;;;5033389;28;20435;-77
2023/04/19 06:30:13;;;;;;;22.00;20.50;;;;;;;;;;5033919;28;20450;-77
2023/04/19 06:32:42;;;;;;;22.30;20.83;;;;;;;;;;5033869;28;20411;-78
2023/04/19 06:35:09;;;;;;;23.13;21.73;;;;;;;;;;5033581;28;20487;-77
2023/04/19 06:37:36;;;;;;;21.73;20.33;;;;;;;;;;5032900;28;20938;-79
2023/04/19 06:40:06;;;;;;;23.17;21.63;;;;;;;;;;5034251;28;20437;-78
2023/04/19 06:42:33;;;;;;;21.77;20.50;;;;;;;;;;5034621;28;20423;-79
2023/04/19 06:45:00;;;;;;;22.00;20.60;;;;;;;;;;5034695;28;20439;-79
2023/04/19 06:47:27;;;;;;;22.63;21.30;;;;;;;;;;5033356;28;20465;-78
2023/04/19 06:49:55;;;;;;;24.03;22.33;;;;;;;;;;5034678;28;20442;-78
2023/04/19 06:52:22;;;;;;;22.93;21.40;;;;;;;;;;5034833;28;20451;-78
2023/04/19 06:54:49;;;;;;;22.93;21.40;;;;;;;;;;5034954;28;20504;-80
2023/04/19 06:57:16;;;;;;;21.93;20.63;;;;;;;;;;5034161;28;20472;-79
2023/04/19 06:59:43;;;;;;;22.30;20.80;;;;;;;;;;5034110;28;20461;-79
2023/04/19 07:02:10;;;;;;;22.50;21.20;;;;;;;;;;5033705;28;20961;-79
2023/04/19 07:04:38;;;;;;;22.97;21.67;;;;;;;;;;5034618;28;20429;-79
2023/04/19 07:07:06;;;;;;;23.53;22.07;;;;;;;;;;5033813;28;20825;-78
2023/04/19 07:09:33;;;;;;;22.37;21.17;;;;;;;;;;5034832;28;20475;-78
2023/04/19 07:12:00;;;;;;;23.73;22.23;;;;;;;;;;5035151;28;20519;-78
2023/04/19 07:14:27;;;;;;;22.80;21.40;;;;;;;;;;5034702;28;20501;-78
2023/04/19 07:16:54;;;;;;;22.13;20.93;;;;;;;;;;5034634;28;20445;-79
2023/04/19 07:19:21;;;;;;;24.93;22.30;;;;;;;;;;5035257;28;20789;-79
2023/04/19 07:21:48;;;;;;;23.53;22.03;;;;;;;;;;5035089;28;20466;-79
2023/04/19 07:24:17;;;;;;;22.90;21.60;;;;;;;;;;5034093;28;20557;-79
2023/04/19 07:26:44;;;;;;;23.30;21.80;;;;;;;;;;5034251;28;20447;-79
2023/04/19 07:29:11;;;;;;;24.10;22.60;;;;;;;;;;5035070;28;20976;-79
2023/04/19 07:31:38;;;;;;;23.30;21.80;;;;;;;;;;5035017;28;20458;-79
2023/04/19 07:34:05;;;;;;;23.57;22.17;;;;;;;;;;5034608;28;20534;-80
2023/04/19 07:36:33;;;;;;;23.40;21.87;;;;;;;;;;5034431;28;20479;-79
2023/04/19 07:39:00;;;;;;;23.53;21.97;;;;;;;;;;5034947;28;20476;-79
2023/04/19 07:41:29;;;;;;;22.60;21.40;;;;;;;;;;5035642;28;20455;-79
2023/04/19 07:43:56;;;;;;;24.00;22.27;;;;;;;;;;5035931;28;20945;-80
2023/04/19 07:46:23;;;;;;;23.40;22.00;;;;;;;;;;5034833;28;20871;-79
2023/04/19 07:48:50;;;;;;;23.30;22.00;;;;;;;;;;5035620;28;21034;-80
2023/04/19 07:51:18;;;;;;;22.87;21.57;;;;;;;;;;5039367;28;20456;-79
2023/04/19 07:53:46;;;;;;;22.33;20.93;;;;;;;;;;5039931;28;20471;-78
2023/04/19 07:56:14;;;;;;;24.07;22.17;;;;;;;;;;5039016;28;20457;-79
2023/04/19 07:58:42;;;;;;;22.80;21.40;;;;;;;;;;5040693;28;20486;-80
2023/04/19 08:01:10;;;;;;;22.70;21.40;;;;;;;;;;5040178;28;20458;-79
2023/04/19 08:03:37;;;;;;;21.97;20.67;;;;;;;;;;5040124;28;20426;-79
2023/04/19 08:06:06;;;;;;;23.30;21.90;;;;;;;;;;5039492;28;20807;-79
2023/04/19 08:08:33;;;;;;;22.23;20.83;;;;;;;;;;5038846;28;20508;-79
2023/04/19 08:11:01;;;;;;;23.20;21.80;;;;;;;;;;5040001;28;20474;-79
2023/04/19 08:13:28;;;;;;;23.33;21.93;;;;;;;;;;5040180;28;20434;-79
2023/04/19 08:15:56;;;;;;;23.60;22.20;;;;;;;;;;5038280;28;20484;-79
2023/04/19 08:18:23;;;;;;;23.60;22.20;;;;;;;;;;5038222;28;20475;-79
2023/04/19 08:20:50;;;;;;;22.17;20.87;;;;;;;;;;5038384;28;20828;-78
2023/04/19 08:23:17;;;;;;;23.77;22.07;;;;;;;;;;5038914;28;20433;-78
2023/04/19 08:25:44;;;;;;;22.53;21.23;;;;;;;;;;5038237;28;20422;-77
2023/04/19 08:28:12;;;;;;;23.30;21.97;;;;;;;;;;5039373;28;20785;-79
2023/04/19 08:30:39;;;;;;;22.63;21.30;;;;;;;;;;5038543;28;20471;-79
2023/04/19 08:33:07;;;;;;;23.53;21.70;;;;;;;;;;5040009;28;20437;-79
2023/04/19 08:35:35;;;;;;;22.70;21.20;;;;;;;;;;5040169;28;20512;-80
2023/04/19 08:38:03;;;;;;;21.57;20.27;;;;;;;;;;5040633;28;20522;-80
2023/04/19 08:40:30;;;;;;;23.07;21.67;;;;;;;;;;5041845;28;20484;-80
2023/04/19 08:42:57;;;;;;;22.50;21.20;;;;;;;;;;5041729;28;20471;-83
2023/04/19 08:45:27;;;;;;;24.03;22.53;;;;;;;;;;5040044;28;20426;-80
2023/04/19 08:47:54;;;;;;;23.43;22.13;;;;;;;;;;5016496;28;20436;-83
2023/04/19 08:50:23;;;;;;;24.03;22.63;;;;;;;;;;5017785;28;20468;-83
2023/04/19 08:52:50;;;;;;;23.23;21.90;;;;;;;;;;5017050;28;20479;-82
2023/04/19 08:55:18;;;;;;;23.90;22.50;;;;;;;;;;5017965;28;20882;-84
2023/04/19 08:57:45;;;;;;;23.23;21.83;;;;;;;;;;5017419;28;20781;-84
2023/04/19 09:00:13;;;;;;;23.13;21.73;;;;;;;;;;5017348;28;20447;-83
2023/04/19 09:02:47;;;;;;;23.30;21.80;;;;;;;;;;5017873;28;20460;-84
2023/04/19 09:05:14;;;;;;;24.00;22.50;;;;;;;;;;5017364;28;20506;-83
2023/04/19 09:07:42;;;;;;;24.07;22.67;;;;;;;;;;5016988;28;20442;-84
2023/04/19 09:10:10;;;;;;;24.33;22.73;;;;;;;;;;5016436;28;20526;-84
2023/04/19 09:12:37;;;;;;;24.20;22.70;;;;;;;;;;5016355;28;20464;-84
2023/04/19 09:15:07;;;;;;;24.57;23.07;;;;;;;;;;5017140;28;20415;-84
2023/04/19 09:17:34;;;;;;;25.03;23.50;;;;;;;;;;5016902;28;20839;-83
2023/04/19 09:20:03;;;;;;;24.73;22.90;;;;;;;;;;5016822;28;20467;-83
2023/04/19 09:22:30;;;;;;;23.60;22.10;;;;;;;;;;5016966;28;20433;-83
2023/04/19 09:24:58;;;;;;;24.03;22.43;;;;;;;;;;5016643;28;20446;-84
2023/04/19 09:27:27;;;;;;;23.40;22.00;;;;;;;;;;5016190;28;20503;-83
2023/04/19 09:29:55;;;;;;;24.50;23.00;;;;;;;;;;5016341;28;20810;-83
2023/04/19 09:32:22;;;;;;;25.90;24.13;;;;;;;;;;5015905;28;20518;-84
2023/04/19 09:34:53;;;;;;;24.30;22.80;;;;;;;;;;5017394;28;20438;-84
2023/04/19 09:37:20;;;;;;;23.67;22.37;;;;;;;;;;5015633;28;20467;-83
2023/04/19 09:39:47;;;;;;;25.43;23.93;;;;;;;;;;5014927;28;20476;-83
2023/04/19 09:42:16;;;;;;;23.13;21.77;;;;;;;;;;5015301;28;20427;-83
2023/04/19 09:44:43;;;;;;;23.03;21.63;;;;;;;;;;5015067;28;20423;-84
2023/04/19 09:47:23;;;;;;;24.17;22.60;;;;;;;;;;5014406;28;21056;-84
2023/04/19 09:50:04;;;;;;;23.93;22.43;;;;;;;;;;5015225;28;20577;-83
2023/04/19 09:52:32;;;;;;;23.97;22.20;;;;;;;;;;5015510;28;20419;-84
2023/04/19 09:55:01;;;;;;;23.67;22.17;;;;;;;;;;5015285;28;20427;-84
2023/04/19 09:57:30;;;;;;;23.37;21.87;;;;;;;;;;5014479;28;20458;-84
2023/04/19 09:59:57;;;;;;;24.20;22.70;;;;;;;;;;5023466;28;20495;-79
2023/04/19 10:02:25;;;;;;;24.00;22.47;;;;;;;;;;5036123;28;20451;-80
2023/04/19 10:04:52;;;;;;;25.00;23.33;;;;;;;;;;5038825;28;20478;-80
2023/04/19 10:07:19;;;;;;;24.13;22.60;;;;;;;;;;5037613;28;20418;-82
2023/04/19 10:09:47;;;;;;;25.07;23.23;;;;;;;;;;5036670;28;21477;-79
2023/04/19 10:12:16;;;;;;;23.53;22.07;;;;;;;;;;5039214;28;20498;-81
2023/04/19 10:14:44;;;;;;;24.37;22.90;;;;;;;;;;5040576;28;20497;-79
2023/04/19 10:17:11;;;;;;;23.70;22.30;;;;;;;;;;5038937;28;20551;-80
2023/04/19 10:19:40;;;;;;;23.60;22.20;;;;;;;;;;5038494;28;20479;-80
2023/04/19 10:22:07;;;;;;;24.30;22.70;;;;;;;;;;5037934;28;20444;-82
2023/04/19 10:24:34;;;;;;;24.30;22.70;;;;;;;;;;5038303;28;20484;-81
2023/04/19 10:27:11;;;;;;;24.57;22.97;;;;;;;;;;5038622;28;20500;-81
2023/04/19 10:30:02;;;;;;;24.17;22.47;;;;;;;;;;5038565;28;20479;-80
2023/04/19 10:32:30;;;;;;;23.80;22.40;;;;;;;;;;5035742;28;20562;-79
2023/04/19 10:35:03;;;;;;;24.33;22.90;;;;;;;;;;5034236;28;20449;-81
2023/04/19 10:37:31;;;;;;;23.90;22.50;;;;;;;;;;5033855;28;20441;-79
2023/04/19 10:39:58;;;;;;;25.10;23.40;;;;;;;;;;5034526;28;20450;-80
2023/04/19 10:42:25;;;;;;;24.37;22.97;;;;;;;;;;5034451;28;20427;-82
2023/04/19 10:45:11;;;;;;;23.33;22.00;;;;;;;;;;5034125;28;20471;-82
2023/04/19 10:47:43;;;;;;;24.27;22.77;;;;;;;;;;5036076;28;20776;-84
2023/04/19 10:50:11;;;;;;;23.83;22.43;;;;;;;;;;5033677;28;20874;-81
2023/04/19 10:52:38;;;;;;;24.57;23.07;;;;;;;;;;5034398;28;20426;-80
2023/04/19 10:55:06;;;;;;;23.63;22.13;;;;;;;;;;5033367;28;20479;-80
2023/04/19 10:58:01;;;;;;;24.47;23.07;;;;;;;;;;5033551;28;20453;-81
2023/04/19 11:00:30;;;;;;;24.50;23.10;;;;;;;;;;5033330;28;20481;-81
2023/04/19 11:02:59;;;;;;;24.80;23.13;;;;;;;;;;5033255;28;20459;-81
2023/04/19 11:05:26;;;;;;;24.50;23.00;;;;;;;;;;5032803;28;20446;-81
2023/04/19 11:07:53;;;;;;;24.33;22.63;;;;;;;;;;5032626;28;20514;-81
2023/04/19 11:10:28;;;;;;;22.70;21.50;;;;;;;;;;5032587;28;20449;-81
2023/04/19 11:12:55;;;;;;;20.40;18.97;;;;;;;;;;5032716;28;21013;-81
2023/04/19 11:15:23;;;;;;;20.40;19.20;;;;;;;;;;5033009;28;20920;-79
2023/04/19 11:17:51;;;;;;;24.00;22.60;;;;;;;;;;5031529;28;20488;-81
2023/04/19 11:20:23;;;;;;;24.10;22.70;;;;;;;;;;4997141;28;1002802;-81
2023/04/19 11:22:50;;;;;;;24.93;23.43;;;;;;;;;;5032982;28;20220;-81
2023/04/19 11:25:19;;;;;;;23.50;22.10;;;;;;;;;;5033599;28;20448;-82
2023/04/19 11:27:47;;;;;;;24.27;22.87;;;;;;;;;;5033495;28;20451;-81
2023/04/19 11:30:15;;;;;;;23.80;22.30;;;;;;;;;;5033435;28;20475;-78
2023/04/19 11:32:47;;;;;;;24.70;23.17;;;;;;;;;;5033533;28;20399;-80
2023/04/19 11:35:14;;;;;;;24.60;23.00;;;;;;;;;;5033416;28;20505;-81
2023/04/19 11:37:42;;;;;;;25.67;23.97;;;;;;;;;;5032564;28;20465;-81
2023/04/19 11:40:10;;;;;;;23.50;22.10;;;;;;;;;;5033229;28;20850;-80
2023/04/19 11:42:37;;;;;;;25.00;23.30;;;;;;;;;;5032902;28;20520;-81
2023/04/19 11:45:04;;;;;;;23.63;22.23;;;;;;;;;;5033754;28;20864;-80
2023/04/19 11:47:32;;;;;;;25.60;24.10;;;;;;;;;;5033185;28;20497;-80
2023/04/19 11:50:20;;;;;;;23.60;22.27;;;;;;;;;;5032953;28;20438;-80
2023/04/19 11:52:50;;;;;;;23.90;22.40;;;;;;;;;;5033296;28;20482;-81
2023/04/19 11:55:21;;;;;;;24.80;23.33;;;;;;;;;;5034129;28;20411;-80
2023/04/19 11:57:48;;;;;;;23.80;22.50;;;;;;;;;;5033229;28;20451;-80
2023/04/19 12:00:16;;;;;;;24.53;22.70;;;;;;;;;;5033681;28;20486;-82
2023/04/19 12:02:43;;;;;;;23.70;22.40;;;;;;;;;;5034445;28;20464;-80
2023/04/19 12:05:11;;;;;;;24.67;23.27;;;;;;;;;;5034008;28;20472;-80
2023/04/19 12:07:38;;;;;;;23.87;22.50;;;;;;;;;;5033981;28;20456;-81
2023/04/19 12:10:11;;;;;;;24.00;22.60;;;;;;;;;;5033937;28;20498;-81
2023/04/19 12:12:38;;;;;;;24.87;23.27;;;;;;;;;;5034051;28;20426;-80
2023/04/19 12:15:06;;;;;;;24.87;23.17;;;;;;;;;;5034452;28;20936;-81
2023/04/19 12:17:33;;;;;;;25.10;23.60;;;;;;;;;;5033140;28;20496;-80
2023/04/19 12:20:00;;;;;;;23.50;22.10;;;;;;;;;;5033324;28;20520;-81
2023/04/19 12:22:27;;;;;;;24.50;23.00;;;;;;;;;;5034098;28;20796;-81
2023/04/19 12:24:55;;;;;;;24.87;23.37;;;;;;;;;;5033766;28;20507;-80
2023/04/19 12:27:24;;;;;;;25.17;23.77;;;;;;;;;;5032933;28;20937;-82
2023/04/19 12:29:51;;;;;;;25.03;23.33;;;;;;;;;;5032179;28;20457;-82
2023/04/19 12:32:18;;;;;;;24.83;23.33;;;;;;;;;;5031485;28;20402;-80
2023/04/19 12:34:45;;;;;;;26.73;24.17;;;;;;;;;;5033970;28;20821;-81
2023/04/19 12:37:12;;;;;;;25.20;23.70;;;;;;;;;;5036242;28;20512;-81
2023/04/19 12:39:39;;;;;;;25.20;23.70;;;;;;;;;;5036700;28;20446;-80
2023/04/19 12:42:06;;;;;;;24.60;23.20;;;;;;;;;;5035731;28;20475;-81
2023/04/19 12:44:34;;;;;;;24.40;23.00;;;;;;;;;;5033697;28;20492;-81
2023/04/19 12:47:01;;;;;;;24.83;23.33;;;;;;;;;;5033212;28;20455;-80
2023/04/19 12:49:28;;;;;;;24.13;22.53;;;;;;;;;;5033456;28;20492;-79
2023/04/19 12:51:55;;;;;;;24.47;23.07;;;;;;;;;;5034576;28;20437;-80
2023/04/19 12:54:22;;;;;;;24.70;23.20;;;;;;;;;;5034163;28;20521;-80
2023/04/19 12:56:49;;;;;;;24.87;23.37;;;;;;;;;;5034101;28;20453;-81
2023/04/19 12:59:16;;;;;;;23.60;22.23;;;;;;;;;;5034822;28;20451;-82
2023/04/19 13:01:45;;;;;;;23.70;22.30;;;;;;;;;;5035345;28;20433;-80
2023/04/19 13:04:12;;;;;;;24.47;22.87;;;;;;;;;;5035706;28;20446;-82
2023/04/19 13:06:40;;;;;;;23.40;22.10;;;;;;;;;;5037225;28;20414;-83
2023/04/19 13:09:07;;;;;;;24.17;22.60;;;;;;;;;;5035861;28;20590;-79
2023/04/19 13:11:34;;;;;;;24.70;23.20;;;;;;;;;;5035851;28;20459;-79
2023/04/19 13:14:01;;;;;;;23.77;22.37;;;;;;;;;;5035701;28;20799;-78
2023/04/19 13:16:28;;;;;;;25.03;23.53;;;;;;;;;;5034382;28;20454;-79
2023/04/19 13:18:56;;;;;;;24.63;22.50;;;;;;;;;;5036139;28;20525;-80
2023/04/19 13:21:23;;;;;;;24.47;22.97;;;;;;;;;;5035670;28;20441;-79
2023/04/19 13:23:51;;;;;;;23.77;22.27;;;;;;;;;;5035599;28;20490;-79
2023/04/19 13:26:18;;;;;;;24.10;22.50;;;;;;;;;;5034427;28;20885;-80
2023/04/19 13:28:45;;;;;;;24.27;22.87;;;;;;;;;;5034566;28;20471;-82
2023/04/19 13:31:12;;;;;;;23.13;21.73;;;;;;;;;;5034791;28;20443;-82
2023/04/19 13:33:39;;;;;;;25.33;23.73;;;;;;;;;;5034685;28;20422;-82
2023/04/19 13:36:08;;;;;;;23.00;21.63;;;;;;;;;;5033865;28;20460;-78
2023/04/19 13:38:35;;;;;;;23.60;22.30;;;;;;;;;;5033626;28;21074;-78
2023/04/19 13:41:03;;;;;;;24.27;22.87;;;;;;;;;;5034085;28;20460;-83
2023/04/19 13:43:31;;;;;;;27.87;22.07;;;;;;;;;;5034526;28;20460;-79
2023/04/19 13:45:58;;;;;;;23.80;22.40;;;;;;;;;;5035030;28;20467;-78
2023/04/19 13:48:41;;;;;;;25.57;23.30;;;;;;;;;;5033687;28;20479;-88
2023/04/19 13:51:10;;;;;;;24.43;22.70;;;;;;;;;;5033554;28;20441;-78
2023/04/19 13:53:39;;;;;;;24.03;22.73;;;;;;;;;;5037725;28;20968;-80
2023/04/19 13:56:09;;;;;;;24.23;22.90;;;;;;;;;;5038217;28;20415;-79
2023/04/19 13:58:37;;;;;;;23.83;22.53;;;;;;;;;;5037117;28;20486;-79
2023/04/19 14:01:05;;;;;;;23.40;22.00;;;;;;;;;;5038331;28;20410;-80
2023/04/19 14:03:32;;;;;;;23.53;22.33;;;;;;;;;;5040298;28;20502;-79
2023/04/19 14:05:59;;;;;;;23.13;21.63;;;;;;;;;;5044457;28;20456;-79
2023/04/19 14:08:28;;;;;;;25.00;23.27;;;;;;;;;;5045846;28;20552;-80
2023/04/19 14:10:55;;;;;;;22.67;21.23;;;;;;;;;;5044419;28;20463;-80
2023/04/19 14:13:22;;;;;;;24.43;23.03;;;;;;;;;;5044335;28;20453;-80
2023/04/19 14:15:49;;;;;;;24.93;23.03;;;;;;;;;;5044184;28;20443;-80
2023/04/19 14:18:16;;;;;;;24.37;22.87;;;;;;;;;;5043502;28;20494;-79
2023/04/19 14:20:43;;;;;;;24.43;22.93;;;;;;;;;;5043062;28;20551;-80